Time;durP1;ratioP1;P1;durP2;ratioP2;P2;SDS_P1;SDS_P2;PMS_P1;PMS_P2;Temp;Humidity;BMP_temperature;BMP_pressure;BME280_temperature;BME280_humidity;BME280_pressure;Samples;Min_cycle;Max_cycle;Signal;HPM_P1;HPM_P2
2023/02/03 00:01:48;;;;;;;26.85;9.52;;;28.70;71.60;;;;;;5086929;28;20032;-56
2023/02/03 00:04:15;;;;;;;32.13;9.57;;;28.70;71.70;;;;;;5087086;28;20040;-58
2023/02/03 00:06:42;;;;;;;27.65;8.73;;;28.60;71.50;;;;;;5086515;28;20028;-59
2023/02/03 00:09:09;;;;;;;38.92;8.57;;;28.60;71.50;;;;;;5086801;28;20032;-59
2023/02/03 00:11:35;;;;;;;40.70;9.32;;;28.60;71.40;;;;;;5085257;28;20024;-57
2023/02/03 00:14:04;;;;;;;35.05;8.60;;;28.60;71.50;;;;;;5085556;28;20162;-58
2023/02/03 00:16:30;;;;;;;49.47;9.25;;;28.60;71.30;;;;;;5084051;28;20099;-59
2023/02/03 00:18:57;;;;;;;32.40;7.93;;;28.60;71.30;;;;;;5086219;28;20315;-57
2023/02/03 00:21:24;;;;;;;23.27;8.10;;;28.60;71.10;;;;;;5086267;28;20040;-56
2023/02/03 00:23:53;;;;;;;33.70;8.13;;;28.50;71.00;;;;;;5086071;28;20040;-57
2023/02/03 00:26:20;;;;;;;29.10;7.97;;;28.50;70.80;;;;;;5085564;28;20363;-60
2023/02/03 00:28:46;;;;;;;20.83;7.80;;;28.50;70.80;;;;;;5086297;28;20029;-58
2023/02/03 00:31:21;;;;;;;33.08;7.60;;;28.50;70.70;;;;;;5085915;28;20023;-58
2023/02/03 00:33:53;;;;;;;20.55;7.53;;;28.50;70.70;;;;;;5085844;28;20096;-59
2023/02/03 00:36:22;;;;;;;18.80;7.75;;;28.40;70.70;;;;;;5085791;28;20093;-57
2023/02/03 00:38:49;;;;;;;23.27;8.10;;;28.40;70.60;;;;;;5080496;28;20039;-61
2023/02/03 00:41:16;;;;;;;24.05;8.05;;;28.30;70.40;;;;;;5079546;28;20092;-60
2023/02/03 00:43:43;;;;;;;31.20;8.07;;;28.10;70.70;;;;;;5079878;28;20045;-57
2023/02/03 00:46:09;;;;;;;19.98;7.78;;;28.00;71.10;;;;;;5080293;28;20028;-59
2023/02/03 00:48:36;;;;;;;20.85;7.45;;;28.00;71.10;;;;;;5083482;28;20052;-59
2023/02/03 00:51:03;;;;;;;24.77;7.78;;;28.00;71.00;;;;;;5075160;28;20375;-57
2023/02/03 00:53:30;;;;;;;19.58;7.00;;;28.00;70.80;;;;;;5074157;28;20020;-57
2023/02/03 00:55:56;;;;;;;21.73;6.85;;;28.10;70.70;;;;;;5072210;28;20020;-58
2023/02/03 00:58:23;;;;;;;14.88;7.07;;;28.10;70.50;;;;;;5074739;28;20044;-57
2023/02/03 01:00:53;;;;;;;17.65;6.75;;;28.10;70.30;;;;;;5068057;28;20013;-61
2023/02/03 01:03:19;;;;;;;19.75;6.75;;;28.10;70.20;;;;;;5075545;28;20025;-56
2023/02/03 01:05:46;;;;;;;18.67;6.80;;;28.10;70.00;;;;;;5068035;28;20040;-58
2023/02/03 01:08:13;;;;;;;17.60;6.72;;;28.10;69.90;;;;;;5073143;28;20346;-58
2023/02/03 01:10:40;;;;;;;13.93;6.45;;;28.10;69.80;;;;;;5067750;28;20222;-56
2023/02/03 01:13:08;;;;;;;22.17;7.43;;;28.10;69.70;;;;;;5073497;28;20016;-57
2023/02/03 01:15:34;;;;;;;14.43;7.10;;;28.10;69.50;;;;;;5081536;28;20078;-55
2023/02/03 01:18:01;;;;;;;15.18;6.72;;;28.10;69.40;;;;;;5083489;28;20059;-56
2023/02/03 01:20:27;;;;;;;16.45;6.40;;;28.10;69.30;;;;;;5085281;28;20070;-57
2023/02/03 01:22:54;;;;;;;21.67;6.82;;;28.10;69.10;;;;;;5078355;28;20044;-62
2023/02/03 01:25:21;;;;;;;14.27;5.72;;;27.90;69.40;;;;;;5083464;28;20048;-54
2023/02/03 01:27:47;;;;;;;16.67;6.75;;;27.80;69.60;;;;;;5076939;28;20032;-58
2023/02/03 01:30:14;;;;;;;22.70;6.40;;;27.80;69.60;;;;;;5083707;28;20020;-54
2023/02/03 01:32:40;;;;;;;15.82;6.60;;;27.80;69.60;;;;;;5076947;28;20310;-55
2023/02/03 01:35:07;;;;;;;19.98;7.05;;;27.80;69.50;;;;;;5076165;28;20024;-53
2023/02/03 01:37:34;;;;;;;14.65;6.38;;;27.80;69.50;;;;;;5073163;28;20375;-56
2023/02/03 01:40:00;;;;;;;13.90;6.68;;;27.90;69.40;;;;;;5064551;28;20074;-57
2023/02/03 01:42:32;;;;;;;24.83;7.18;;;27.80;69.30;;;;;;5070085;28;20041;-57
2023/02/03 01:44:59;;;;;;;20.60;6.80;;;27.90;69.30;;;;;;5084386;28;20332;-57
2023/02/03 01:47:42;;;;;;;12.93;6.72;;;27.80;69.20;;;;;;5084807;28;20268;-57
2023/02/03 01:50:17;;;;;;;19.73;7.35;;;27.90;69.30;;;;;;5076185;28;20028;-59
2023/02/03 01:52:50;;;;;;;18.45;7.78;;;27.80;69.20;;;;;;5064545;28;20057;-58
2023/02/03 01:55:23;;;;;;;20.77;7.57;;;27.80;69.30;;;;;;5064383;28;20187;-56
2023/02/03 01:57:59;;;;;;;28.13;8.00;;;27.80;69.30;;;;;;5069188;28;20044;-58
2023/02/03 02:00:26;;;;;;;20.55;7.78;;;27.80;69.40;;;;;;5074606;28;20082;-59
2023/02/03 02:02:53;;;;;;;18.10;7.80;;;27.80;69.50;;;;;;5068340;28;20041;-53
2023/02/03 02:05:30;;;;;;;33.00;7.65;;;27.80;69.50;;;;;;5067133;28;20041;-56
2023/02/03 02:07:59;;;;;;;31.02;8.48;;;27.80;69.50;;;;;;5074504;28;20040;-57
2023/02/03 02:10:28;;;;;;;44.08;9.73;;;27.70;69.30;;;;;;5070447;28;20312;-58
2023/02/03 02:12:57;;;;;;;70.55;10.27;;;27.70;69.10;;;;;;5064041;28;20094;-55
2023/02/03 02:15:35;;;;;;;51.35;9.63;;;27.70;69.00;;;;;;5068733;28;20083;-53
2023/02/03 02:18:35;;;;;;;26.73;7.93;;;27.70;68.90;;;;;;5077920;28;20036;-56
2023/02/03 02:21:20;;;;;;;41.90;8.88;;;27.70;68.70;;;;;;5070160;28;20028;-56
2023/02/03 02:24:15;;;;;;;31.42;7.88;;;27.70;68.60;;;;;;5072633;28;20021;-54
2023/02/03 02:27:05;;;;;;;20.30;7.63;;;27.70;68.50;;;;;;5074285;28;20070;-54
2023/02/03 02:29:51;;;;;;;12.27;6.95;;;27.70;68.20;;;;;;5083851;28;20263;-56
2023/02/03 02:32:23;;;;;;;18.33;7.65;;;27.70;68.20;;;;;;5082207;28;20304;-56
2023/02/03 02:35:03;;;;;;;;;;;27.70;68.10;;;;;;5071003;28;20020;-54
2023/02/03 02:37:57;;;;;;;13.20;7.10;;;27.70;67.90;;;;;;5073244;28;20063;-54
2023/02/03 02:40:29;;;;;;;13.98;7.65;;;27.70;67.80;;;;;;5029611;28;20139;-56
2023/02/03 02:43:12;;;;;;;14.90;7.18;;;27.60;67.60;;;;;;5075813;28;20316;-56
2023/02/03 02:45:50;;;;;;;11.95;7.40;;;27.60;67.50;;;;;;5063991;28;20033;-56
2023/02/03 02:48:35;;;;;;;12.55;7.47;;;27.60;67.50;;;;;;5063773;28;20044;-56
2023/02/03 02:51:05;;;;;;;10.15;7.35;;;27.60;67.40;;;;;;5062088;28;20048;-55
2023/02/03 02:53:39;;;;;;;12.43;8.00;;;27.60;67.30;;;;;;5049697;28;20095;-54
2023/02/03 02:56:08;;;;;;;17.42;8.40;;;27.60;67.10;;;;;;5050263;28;20032;-56
2023/02/03 02:58:38;;;;;;;18.17;8.27;;;27.60;67.00;;;;;;5052402;28;20044;-57
2023/02/03 03:01:08;;;;;;;15.63;8.05;;;27.60;67.00;;;;;;5049407;28;20025;-55
2023/02/03 03:03:39;;;;;;;18.35;8.32;;;27.60;66.80;;;;;;5059026;28;20040;-55
2023/02/03 03:06:09;;;;;;;16.10;8.10;;;27.60;66.70;;;;;;5058059;28;20043;-55
2023/02/03 03:08:46;;;;;;;13.85;8.65;;;27.60;66.70;;;;;;5055698;28;20170;-56
2023/02/03 03:11:13;;;;;;;19.63;8.57;;;27.50;66.50;;;;;;5057836;28;20029;-56
2023/02/03 03:13:46;;;;;;;14.38;8.70;;;27.50;66.40;;;;;;5067452;28;20052;-55
2023/02/03 03:16:15;;;;;;;17.92;9.02;;;27.50;66.40;;;;;;5063565;28;20040;-54
2023/02/03 03:19:06;;;;;;;19.40;9.35;;;27.50;66.30;;;;;;5057846;28;20060;-55
2023/02/03 03:21:40;;;;;;;14.70;9.70;;;27.50;66.20;;;;;;5049731;28;20032;-52
2023/02/03 03:24:11;;;;;;;18.90;10.13;;;27.50;66.20;;;;;;5055909;28;20032;-56
2023/02/03 03:27:12;;;;;;;16.52;10.18;;;27.50;65.90;;;;;;5045977;28;20033;-59
2023/02/03 03:29:55;;;;;;;17.95;10.10;;;27.40;65.80;;;;;;5045536;28;20021;-62
2023/02/03 03:32:22;;;;;;;15.25;10.48;;;27.40;65.70;;;;;;5045437;28;20265;-51
2023/02/03 03:34:50;;;;;;;15.70;10.45;;;27.40;65.70;;;;;;5045723;28;20033;-53
2023/02/03 03:37:26;;;;;;;14.57;10.40;;;27.40;65.50;;;;;;5045613;28;20044;-52
2023/02/03 03:40:19;;;;;;;19.10;11.23;;;27.40;65.40;;;;;;5045218;28;20057;-52
2023/02/03 03:43:10;;;;;;;21.95;11.15;;;27.40;65.20;;;;;;5047348;28;20025;-56
2023/02/03 03:45:51;;;;;;;15.98;11.55;;;27.40;65.50;;;;;;5066777;28;20116;-56
2023/02/03 03:48:36;;;;;;;15.23;11.40;;;27.30;64.70;;;;;;5067110;28;20051;-55
2023/02/03 03:51:13;;;;;;;14.15;11.80;;;27.40;64.80;;;;;;5066716;28;20333;-54
2023/02/03 03:53:42;;;;;;;15.90;11.50;;;27.30;64.60;;;;;;5066710;28;20024;-58
2023/02/03 03:56:14;;;;;;;16.52;11.65;;;27.30;64.50;;;;;;5066776;28;20060;-56
2023/02/03 03:58:46;;;;;;;15.43;11.77;;;27.30;64.50;;;;;;5066409;28;20032;-55
2023/02/03 04:01:15;;;;;;;18.70;12.65;;;27.30;64.50;;;;;;5074565;28;20032;-55
2023/02/03 04:03:50;;;;;;;14.55;12.23;;;27.30;64.50;;;;;;5081511;28;20028;-55
2023/02/03 04:06:16;;;;;;;14.98;12.43;;;27.30;64.30;;;;;;5066355;28;20036;-55
2023/02/03 04:08:43;;;;;;;15.50;12.70;;;27.30;64.30;;;;;;5066385;28;20028;-50
2023/02/03 04:11:09;;;;;;;17.63;13.48;;;27.30;64.20;;;;;;5066351;28;20021;-53
2023/02/03 04:13:36;;;;;;;15.63;12.90;;;27.30;64.20;;;;;;5065582;28;20035;-52
2023/02/03 04:16:02;;;;;;;16.58;13.32;;;27.30;64.20;;;;;;5066425;28;20028;-57
2023/02/03 04:18:29;;;;;;;17.00;13.98;;;27.20;64.20;;;;;;5066230;28;20025;-55
2023/02/03 04:20:56;;;;;;;17.63;14.32;;;27.20;64.20;;;;;;5066326;28;20017;-58
2023/02/03 04:23:22;;;;;;;18.05;14.00;;;27.20;64.10;;;;;;5066685;28;20013;-63
2023/02/03 04:25:49;;;;;;;19.02;14.32;;;27.20;64.20;;;;;;5064924;28;20032;-61
2023/02/03 04:28:15;;;;;;;15.68;13.98;;;27.20;64.10;;;;;;5066407;28;20361;-62
2023/02/03 04:30:42;;;;;;;15.65;13.50;;;27.20;64.10;;;;;;5064976;28;20060;-63
2023/02/03 04:33:08;;;;;;;16.33;13.48;;;27.20;64.10;;;;;;5066369;28;20084;-63
2023/02/03 04:35:36;;;;;;;20.05;14.52;;;27.20;64.10;;;;;;5065828;28;20024;-63
2023/02/03 04:38:03;;;;;;;18.40;14.65;;;27.20;64.00;;;;;;5064918;28;20045;-56
2023/02/03 04:40:29;;;;;;;20.48;14.45;;;27.20;63.90;;;;;;5080352;28;20029;-56
2023/02/03 04:42:56;;;;;;;21.52;15.32;;;27.10;63.80;;;;;;5075938;28;20074;-54
2023/02/03 04:45:22;;;;;;;22.77;15.70;;;27.10;63.70;;;;;;5074630;28;20052;-54
2023/02/03 04:47:52;;;;;;;22.58;15.70;;;27.10;63.40;;;;;;5066937;28;20042;-55
2023/02/03 04:50:19;;;;;;;19.40;15.55;;;27.10;63.10;;;;;;5065616;28;20033;-55
2023/02/03 04:52:46;;;;;;;17.77;15.88;;;27.10;63.00;;;;;;5066068;28;20020;-54
2023/02/03 04:55:12;;;;;;;23.80;16.35;;;27.10;62.90;;;;;;5065615;28;20033;-57
2023/02/03 04:57:39;;;;;;;19.42;15.88;;;27.10;62.80;;;;;;5065792;28;20032;-58
2023/02/03 05:00:06;;;;;;;20.25;16.48;;;27.10;62.60;;;;;;5065666;28;20039;-55
2023/02/03 05:02:32;;;;;;;18.70;15.98;;;27.00;62.40;;;;;;5065709;28;20037;-58
2023/02/03 05:04:59;;;;;;;20.85;16.23;;;27.00;62.30;;;;;;5065337;28;20088;-57
2023/02/03 05:07:26;;;;;;;21.42;16.30;;;27.00;62.20;;;;;;5065209;28;20060;-55
2023/02/03 05:09:52;;;;;;;18.15;15.98;;;27.00;62.00;;;;;;5065440;28;20021;-56
2023/02/03 05:12:19;;;;;;;20.10;16.40;;;27.00;61.90;;;;;;5065464;28;20013;-57
2023/02/03 05:14:45;;;;;;;17.88;15.98;;;27.00;61.80;;;;;;5065248;28;20029;-57
2023/02/03 05:17:12;;;;;;;18.95;15.70;;;27.00;61.70;;;;;;5065474;28;20032;-55
2023/02/03 05:19:39;;;;;;;20.77;16.15;;;27.00;61.70;;;;;;5065111;28;20033;-54
2023/02/03 05:22:05;;;;;;;17.55;15.55;;;27.00;61.60;;;;;;5065140;28;20029;-55
2023/02/03 05:24:32;;;;;;;18.45;16.15;;;27.00;62.20;;;;;;5064202;28;20032;-54
2023/02/03 05:26:58;;;;;;;18.10;15.35;;;27.00;61.60;;;;;;5064996;28;20036;-55
2023/02/03 05:29:25;;;;;;;19.95;15.57;;;26.90;61.60;;;;;;5064777;28;20321;-57
2023/02/03 05:31:52;;;;;;;20.38;16.48;;;26.90;61.50;;;;;;5065072;28;20110;-56
2023/02/03 05:34:18;;;;;;;19.10;16.25;;;26.90;61.40;;;;;;5064916;28;20088;-54
2023/02/03 05:36:45;;;;;;;20.58;15.85;;;26.90;61.30;;;;;;5064771;28;20067;-55
2023/02/03 05:39:11;;;;;;;19.75;16.83;;;26.90;61.30;;;;;;5064956;28;20048;-55
2023/02/03 05:41:53;;;;;;;19.08;17.05;;;26.90;61.10;;;;;;5064738;28;20236;-59
2023/02/03 05:44:24;;;;;;;21.63;17.60;;;26.90;61.00;;;;;;5064567;28;20048;-55
2023/02/03 05:46:54;;;;;;;20.15;17.58;;;26.90;60.90;;;;;;5064728;28;20074;-55
2023/02/03 05:49:23;;;;;;;22.73;18.10;;;26.90;60.80;;;;;;5064426;28;20092;-54
2023/02/03 05:51:51;;;;;;;24.40;19.02;;;26.90;60.70;;;;;;5064870;28;20090;-58
2023/02/03 05:54:18;;;;;;;24.48;19.30;;;26.90;60.50;;;;;;5064518;28;20021;-60
2023/02/03 05:56:45;;;;;;;25.08;19.02;;;26.90;60.30;;;;;;5064460;28;20032;-63
2023/02/03 05:59:11;;;;;;;22.77;19.38;;;26.90;60.30;;;;;;5064494;28;20201;-63
2023/02/03 06:01:38;;;;;;;25.00;19.63;;;26.90;60.10;;;;;;5064640;28;20033;-61
2023/02/03 06:04:05;;;;;;;25.58;20.33;;;26.90;60.00;;;;;;5064387;28;20033;-63
2023/02/03 06:06:32;;;;;;;23.73;20.65;;;26.90;60.00;;;;;;5063012;28;20028;-63
2023/02/03 06:09:04;;;;;;;24.35;20.00;;;26.90;59.80;;;;;;5064209;28;20025;-54
2023/02/03 06:11:32;;;;;;;25.90;22.08;;;26.80;59.70;;;;;;5064282;28;20208;-53
2023/02/03 06:13:59;;;;;;;26.58;21.25;;;26.80;59.50;;;;;;5064145;28;20032;-56
2023/02/03 06:16:27;;;;;;;27.73;22.58;;;26.80;59.50;;;;;;5064128;28;20037;-57
2023/02/03 06:18:58;;;;;;;24.50;21.88;;;26.80;59.40;;;;;;5064004;28;20313;-58
2023/02/03 06:21:24;;;;;;;26.30;21.80;;;26.80;59.30;;;;;;5064210;28;20252;-58
2023/02/03 06:23:51;;;;;;;30.52;22.70;;;26.80;59.30;;;;;;5064181;28;20044;-59
2023/02/03 06:26:18;;;;;;;26.65;21.48;;;26.80;59.30;;;;;;5064039;28;20055;-56
2023/02/03 06:28:44;;;;;;;25.92;21.30;;;26.80;59.40;;;;;;5064092;28;20029;-59
2023/02/03 06:31:11;;;;;;;26.17;22.08;;;26.80;59.40;;;;;;5063967;28;20017;-57
2023/02/03 06:33:37;;;;;;;27.35;22.02;;;26.80;59.50;;;;;;5070276;28;20028;-56
2023/02/03 06:36:04;;;;;;;27.58;21.67;;;26.70;59.50;;;;;;5068276;28;20035;-56
2023/02/03 06:38:31;;;;;;;26.00;21.90;;;26.70;59.50;;;;;;5081745;28;20054;-58
2023/02/03 06:40:57;;;;;;;26.05;21.90;;;26.70;59.50;;;;;;5083883;28;20024;-63
2023/02/03 06:43:24;;;;;;;24.15;21.55;;;26.70;59.50;;;;;;5084237;28;20315;-56
2023/02/03 06:45:51;;;;;;;25.35;22.55;;;26.70;59.50;;;;;;5083996;28;20032;-53
2023/02/03 06:48:17;;;;;;;27.48;22.88;;;26.70;59.40;;;;;;5084119;28;20197;-53
2023/02/03 06:50:44;;;;;;;24.27;21.67;;;26.70;59.40;;;;;;5083936;28;20299;-54
2023/02/03 06:53:11;;;;;;;25.45;22.75;;;26.70;59.40;;;;;;5084331;28;20035;-54
2023/02/03 06:55:37;;;;;;;25.50;22.48;;;26.70;59.30;;;;;;5083662;28;20040;-55
2023/02/03 06:58:04;;;;;;;24.55;21.80;;;26.70;59.30;;;;;;5084323;28;20036;-59
2023/02/03 07:00:31;;;;;;;26.85;22.75;;;26.70;59.30;;;;;;5083752;28;20032;-54
2023/02/03 07:02:58;;;;;;;26.80;22.08;;;26.70;59.40;;;;;;5083860;28;20029;-55
2023/02/03 07:05:26;;;;;;;24.60;21.77;;;26.60;59.40;;;;;;5084019;28;20032;-56
2023/02/03 07:07:53;;;;;;;27.38;22.50;;;26.60;59.40;;;;;;5083876;28;20025;-55
2023/02/03 07:10:20;;;;;;;25.83;21.95;;;26.60;59.50;;;;;;5083343;28;20039;-54
2023/02/03 07:12:47;;;;;;;24.42;21.77;;;26.70;59.70;;;;;;5084003;28;20075;-58
2023/02/03 07:15:13;;;;;;;24.73;20.42;;;26.70;59.80;;;;;;5071906;28;20025;-56
2023/02/03 07:17:40;;;;;;;24.13;21.52;;;26.60;59.80;;;;;;5074576;28;20025;-63
2023/02/03 07:20:07;;;;;;;25.40;21.10;;;26.60;59.90;;;;;;5062264;28;20317;-61
2023/02/03 07:22:35;;;;;;;25.42;21.23;;;26.60;59.80;;;;;;5063772;28;20051;-62
2023/02/03 07:25:01;;;;;;;24.75;21.48;;;26.60;59.80;;;;;;5063369;28;20229;-62
2023/02/03 07:27:28;;;;;;;23.25;20.60;;;26.60;60.10;;;;;;5063523;28;20025;-62
2023/02/03 07:29:55;;;;;;;24.90;21.52;;;26.60;59.90;;;;;;5063447;28;20028;-63
2023/02/03 07:32:21;;;;;;;27.85;21.58;;;26.60;60.00;;;;;;5063421;28;20017;-55
2023/02/03 07:34:48;;;;;;;23.98;21.45;;;26.60;59.90;;;;;;5063317;28;20329;-54
2023/02/03 07:37:14;;;;;;;25.83;22.27;;;26.60;59.90;;;;;;5063572;28;20025;-58
2023/02/03 07:39:42;;;;;;;27.83;23.08;;;26.60;59.90;;;;;;5063217;28;20039;-50
2023/02/03 07:42:08;;;;;;;27.08;22.00;;;26.60;59.80;;;;;;5063532;28;20091;-54
2023/02/03 07:44:35;;;;;;;29.30;23.75;;;26.60;59.70;;;;;;5063278;28;20084;-55
2023/02/03 07:47:01;;;;;;;24.75;21.92;;;26.50;59.60;;;;;;5063619;28;20036;-51
2023/02/03 07:49:28;;;;;;;27.67;22.38;;;26.50;59.70;;;;;;5074919;28;20337;-53
2023/02/03 07:51:55;;;;;;;25.48;22.77;;;26.50;59.70;;;;;;5080022;28;20029;-55
2023/02/03 07:54:21;;;;;;;29.63;22.75;;;26.50;59.80;;;;;;5086775;28;20025;-53
2023/02/03 07:56:48;;;;;;;27.48;23.10;;;26.50;59.90;;;;;;5086824;28;20048;-54
2023/02/03 07:59:16;;;;;;;27.20;22.55;;;26.50;60.00;;;;;;5086799;28;20328;-58
2023/02/03 08:01:43;;;;;;;28.48;24.10;;;26.40;59.90;;;;;;5081560;28;20043;-54
2023/02/03 08:04:11;;;;;;;28.92;23.77;;;26.40;59.90;;;;;;5072633;28;20025;-56
2023/02/03 08:06:38;;;;;;;26.90;23.98;;;26.40;60.00;;;;;;5083471;28;20083;-56
2023/02/03 08:09:04;;;;;;;25.63;22.92;;;26.40;60.00;;;;;;5086454;28;20024;-55
2023/02/03 08:11:31;;;;;;;25.83;22.90;;;26.40;60.00;;;;;;5086423;28;20204;-54
2023/02/03 08:13:57;;;;;;;26.25;23.02;;;26.30;60.60;;;;;;5086643;28;20032;-56
2023/02/03 08:16:24;;;;;;;28.90;23.52;;;26.30;60.10;;;;;;5086582;28;20078;-60
2023/02/03 08:18:51;;;;;;;25.40;22.65;;;26.30;60.20;;;;;;5086257;28;20032;-52
2023/02/03 08:21:17;;;;;;;27.48;23.13;;;26.30;60.30;;;;;;5086325;28;20016;-55
2023/02/03 08:23:44;;;;;;;30.42;22.98;;;26.30;60.40;;;;;;5086320;28;20032;-53
2023/02/03 08:26:10;;;;;;;27.10;23.10;;;26.30;60.30;;;;;;5085878;28;20056;-55
2023/02/03 08:28:37;;;;;;;28.05;23.58;;;26.30;60.30;;;;;;5081239;28;20055;-55
2023/02/03 08:31:10;;;;;;;27.13;22.83;;;26.30;60.20;;;;;;5075691;28;20138;-56
2023/02/03 08:33:37;;;;;;;27.42;22.98;;;26.30;60.20;;;;;;5071912;28;20309;-56
2023/02/03 08:36:05;;;;;;;25.02;22.23;;;26.30;60.10;;;;;;5074643;28;20100;-55
2023/02/03 08:38:31;;;;;;;24.98;22.23;;;26.20;60.00;;;;;;5075665;28;20044;-59
2023/02/03 08:40:58;;;;;;;28.35;21.65;;;26.20;60.00;;;;;;5065914;28;20028;-60
2023/02/03 08:43:25;;;;;;;27.33;23.52;;;26.20;59.90;;;;;;5066010;28;20151;-59
2023/02/03 08:45:51;;;;;;;25.92;22.52;;;26.20;59.80;;;;;;5065745;28;20021;-59
2023/02/03 08:48:18;;;;;;;27.80;23.98;;;26.20;59.80;;;;;;5066071;28;20033;-59
2023/02/03 08:50:50;;;;;;;28.67;23.95;;;26.20;59.70;;;;;;5065724;28;20059;-53
2023/02/03 08:53:17;;;;;;;27.65;22.48;;;26.20;60.20;;;;;;5066051;28;20032;-54
2023/02/03 08:55:43;;;;;;;26.48;23.60;;;26.20;59.70;;;;;;5065669;28;20036;-59
2023/02/03 08:58:10;;;;;;;30.25;25.13;;;26.20;59.60;;;;;;5065870;28;20032;-57
2023/02/03 09:00:37;;;;;;;30.20;23.98;;;26.10;59.40;;;;;;5065708;28;20115;-57
2023/02/03 09:03:03;;;;;;;26.02;23.05;;;26.20;59.40;;;;;;5065800;28;20021;-60
2023/02/03 09:05:31;;;;;;;26.80;23.65;;;26.10;59.40;;;;;;5066501;28;20067;-56
2023/02/03 09:07:58;;;;;;;28.08;23.15;;;26.10;59.40;;;;;;5079460;28;20035;-59
2023/02/03 09:10:24;;;;;;;29.70;23.48;;;26.10;59.20;;;;;;5070496;28;20079;-59
2023/02/03 09:12:51;;;;;;;26.45;23.33;;;26.10;59.20;;;;;;5065581;28;20076;-64
2023/02/03 09:15:18;;;;;;;26.35;22.83;;;26.10;59.20;;;;;;5065331;28;20213;-56
2023/02/03 09:17:44;;;;;;;26.58;23.48;;;26.10;59.10;;;;;;5070949;28;20264;-55
2023/02/03 09:20:14;;;;;;;27.52;23.83;;;26.10;59.00;;;;;;5085305;28;20283;-56
2023/02/03 09:22:40;;;;;;;28.40;23.75;;;26.10;59.00;;;;;;5085404;28;20054;-56
2023/02/03 09:25:07;;;;;;;27.02;24.15;;;26.10;58.90;;;;;;5084890;28;20036;-63
2023/02/03 09:27:34;;;;;;;27.60;23.58;;;26.10;58.90;;;;;;5084811;28;20032;-55
2023/02/03 09:30:00;;;;;;;29.80;24.23;;;26.10;58.80;;;;;;5085204;28;20233;-53
2023/02/03 09:32:27;;;;;;;27.42;24.50;;;26.10;58.90;;;;;;5085113;28;20027;-55
2023/02/03 09:34:53;;;;;;;27.83;24.33;;;26.00;58.90;;;;;;5084867;28;20123;-54
2023/02/03 09:37:20;;;;;;;28.38;23.88;;;26.00;59.00;;;;;;5085083;28;20095;-55
2023/02/03 09:39:47;;;;;;;29.20;23.38;;;26.00;59.00;;;;;;5084636;28;20024;-56
2023/02/03 09:42:49;;;;;;;29.30;24.15;;;26.00;59.10;;;;;;5084897;28;20024;-56
2023/02/03 09:45:27;;;;;;;29.67;25.02;;;26.00;59.20;;;;;;5079040;28;20067;-56
2023/02/03 09:48:02;;;;;;;27.55;24.48;;;26.00;59.40;;;;;;5084905;28;20039;-56
2023/02/03 09:50:33;;;;;;;30.15;24.85;;;25.90;59.60;;;;;;5084459;28;20343;-55
2023/02/03 09:53:06;;;;;;;29.70;24.70;;;26.00;59.90;;;;;;5084898;28;20021;-55
2023/02/03 09:55:42;;;;;;;30.50;24.38;;;25.90;60.00;;;;;;5084521;28;20029;-56
2023/02/03 09:58:14;;;;;;;30.48;24.83;;;25.80;60.20;;;;;;5084992;28;20039;-55
2023/02/03 10:01:01;;;;;;;29.42;24.60;;;25.90;60.40;;;;;;5084326;28;20024;-54
2023/02/03 10:03:46;;;;;;;29.08;24.98;;;25.90;60.40;;;;;;5084443;28;20036;-54
2023/02/03 10:06:35;;;;;;;34.28;24.83;;;25.80;60.60;;;;;;5084071;28;20236;-54
2023/02/03 10:10:01;;;;;;;30.58;23.85;;;25.80;60.80;;;;;;5084231;28;20037;-60
2023/02/03 10:12:48;;;;;;;32.33;25.73;;;25.80;60.90;;;;;;5042327;28;20023;-57
2023/02/03 10:15:32;;;;;;;31.17;25.92;;;25.80;61.10;;;;;;5042472;28;20333;-55
2023/02/03 10:18:09;;;;;;;33.17;25.00;;;25.70;61.20;;;;;;5060239;28;20082;-53
2023/02/03 10:20:44;;;;;;;37.92;26.45;;;25.70;61.30;;;;;;5074941;28;20095;-55
2023/02/03 10:23:31;;;;;;;35.88;27.05;;;25.60;61.50;;;;;;5077258;28;20063;-55
2023/02/03 10:26:01;;;;;;;31.35;25.85;;;25.60;61.70;;;;;;5084149;28;20062;-53
2023/02/03 10:28:35;;;;;;;35.88;26.00;;;25.60;61.80;;;;;;5083504;28;20032;-54
2023/02/03 10:31:07;;;;;;;34.55;26.15;;;25.60;62.10;;;;;;5079390;28;20067;-54
2023/02/03 10:33:34;;;;;;;34.85;26.90;;;25.60;62.00;;;;;;5083111;28;20028;-55
2023/02/03 10:36:12;;;;;;;36.03;27.13;;;25.60;61.90;;;;;;5075661;28;20025;-53
2023/02/03 10:39:09;;;;;;;40.00;26.40;;;25.50;62.00;;;;;;5073820;28;20275;-55
2023/02/03 10:41:36;;;;;;;39.95;26.60;;;25.50;62.10;;;;;;5082873;28;20020;-55
2023/02/03 10:44:06;;;;;;;39.80;27.02;;;25.50;62.10;;;;;;5083864;28;20443;-56
2023/02/03 10:46:39;;;;;;;44.97;27.98;;;25.50;62.00;;;;;;5084358;28;20031;-58
2023/02/03 10:49:06;;;;;;;42.80;27.13;;;25.50;62.10;;;;;;5084142;28;20070;-53
2023/02/03 10:51:37;;;;;;;45.03;27.67;;;25.50;62.10;;;;;;5082910;28;20081;-56
2023/02/03 10:54:04;;;;;;;49.80;27.15;;;25.50;62.20;;;;;;5083686;28;20269;-56
2023/02/03 10:56:35;;;;;;;39.03;26.33;;;25.50;62.20;;;;;;5082946;28;20024;-58
2023/02/03 10:59:03;;;;;;;48.85;26.38;;;25.50;62.00;;;;;;5084015;28;20056;-56
2023/02/03 11:01:48;;;;;;;39.70;26.02;;;25.50;61.90;;;;;;5084041;28;20074;-57
2023/02/03 11:04:30;;;;;;;44.13;26.45;;;25.50;61.90;;;;;;5080794;28;20075;-55
2023/02/03 11:07:02;;;;;;;48.05;27.33;;;25.60;62.50;;;;;;5066994;28;20225;-54
2023/02/03 11:09:39;;;;;;;49.40;25.98;;;25.60;61.90;;;;;;5081147;28;20037;-55
2023/02/03 11:12:12;;;;;;;47.25;25.70;;;25.60;61.70;;;;;;5073087;28;20017;-53
2023/02/03 11:14:43;;;;;;;53.28;26.23;;;25.60;61.80;;;;;;5080379;28;20028;-55
2023/02/03 11:17:28;;;;;;;40.40;24.35;;;25.60;61.90;;;;;;5084269;28;20028;-61
2023/02/03 11:20:17;;;;;;;67.00;27.23;;;25.60;61.70;;;;;;5082858;28;20099;-55
2023/02/03 11:22:44;;;;;;;49.58;27.27;;;25.60;61.70;;;;;;5081270;28;20313;-56
2023/02/03 11:25:25;;;;;;;61.40;26.88;;;25.50;61.80;;;;;;5086566;28;20037;-55
2023/02/03 11:27:54;;;;;;;62.88;27.88;;;25.50;61.90;;;;;;5086712;28;20059;-55
2023/02/03 11:30:28;;;;;;;68.47;28.58;;;25.50;62.00;;;;;;5086569;28;20031;-59
2023/02/03 11:32:56;;;;;;;68.28;29.50;;;25.50;62.10;;;;;;5086613;28;20024;-57
2023/02/03 11:35:25;;;;;;;69.03;29.10;;;25.50;62.20;;;;;;5087952;28;20028;-55
2023/02/03 11:37:59;;;;;;;76.18;28.52;;;25.50;62.30;;;;;;5088243;28;20031;-56
2023/02/03 11:40:28;;;;;;;68.40;29.20;;;25.50;62.80;;;;;;5085846;28;20420;-56
2023/02/03 11:42:57;;;;;;;68.63;28.67;;;25.50;62.20;;;;;;5086474;28;20024;-56
2023/02/03 11:45:43;;;;;;;61.10;27.70;;;25.50;62.30;;;;;;5087568;28;20056;-56
2023/02/03 11:48:31;;;;;;;69.43;28.52;;;25.50;62.20;;;;;;5087938;28;20146;-56
2023/02/03 11:51:21;;;;;;;62.90;28.17;;;25.50;62.10;;;;;;5087408;28;20021;-54
2023/02/03 11:54:02;;;;;;;61.35;26.95;;;25.60;62.10;;;;;;5087312;28;20091;-56
2023/02/03 11:56:28;;;;;;;69.45;27.83;;;25.60;62.20;;;;;;5087398;28;20021;-55
2023/02/03 11:59:24;;;;;;;62.13;26.63;;;25.60;62.30;;;;;;5087658;28;20029;-57
2023/02/03 12:02:01;;;;;;;65.03;26.25;;;25.70;62.50;;;;;;5087057;28;20021;-56
2023/02/03 12:05:03;;;;;;;72.93;24.65;;;25.70;62.60;;;;;;5087470;28;20041;-56
2023/02/03 12:07:44;;;;;;;69.38;24.55;;;25.70;62.80;;;;;;5087337;28;20020;-57
2023/02/03 12:10:33;;;;;;;65.75;22.58;;;25.70;62.70;;;;;;5086544;28;20283;-55
2023/02/03 12:13:15;;;;;;;50.08;22.58;;;25.80;62.80;;;;;;5067835;28;20029;-57
2023/02/03 12:16:00;;;;;;;76.10;22.27;;;25.80;63.20;;;;;;5087274;28;20028;-56
2023/02/03 12:19:06;;;;;;;47.00;20.20;;;25.80;63.30;;;;;;5086611;28;20032;-57
2023/02/03 12:21:46;;;;;;;39.25;19.40;;;25.90;63.30;;;;;;5085687;28;20111;-56
2023/02/03 12:24:25;;;;;;;48.33;19.27;;;25.90;63.30;;;;;;5087541;28;20367;-56
2023/02/03 12:27:29;;;;;;;37.30;17.60;;;25.90;63.40;;;;;;5087001;28;20043;-56
2023/02/03 12:30:23;;;;;;;43.92;15.77;;;26.00;63.60;;;;;;5086297;28;20028;-58
2023/02/03 12:33:04;;;;;;;38.45;13.98;;;26.00;64.00;;;;;;5086716;28;20027;-56
2023/02/03 12:35:38;;;;;;;29.98;12.88;;;26.00;64.40;;;;;;5086889;28;20032;-56
2023/02/03 12:38:20;;;;;;;58.63;13.63;;;26.00;64.70;;;;;;5087081;28;20024;-57
2023/02/03 12:41:00;;;;;;;35.40;11.77;;;26.10;65.00;;;;;;5086485;28;20050;-56
2023/02/03 12:43:48;;;;;;;23.45;10.48;;;26.10;65.10;;;;;;5086482;28;20041;-56
2023/02/03 12:46:27;;;;;;;22.52;9.93;;;26.20;65.30;;;;;;5086513;28;20092;-56
2023/02/03 12:49:19;;;;;;;27.50;10.40;;;26.10;65.20;;;;;;5087010;28;20029;-56
2023/02/03 12:52:02;;;;;;;33.47;9.60;;;26.20;65.40;;;;;;5068286;28;20028;-57
2023/02/03 12:54:31;;;;;;;;;;;26.20;65.40;;;;;;5087001;28;20021;-55